sensor_id;sensor_type;location;lat;lon;timestamp;P1;P2;P0
76045;PMS7003;64741;41.730;44.788;2023-08-06T00:00:59;5;4.4;3.4
76045;PMS7003;64741;41.730;44.788;2023-08-06T00:05:59;4.2;3.2;2.8
76045;PMS7003;64741;41.730;44.788;2023-08-06T00:10:51;4.4;3.8;3.2
76045;PMS7003;64741;41.730;44.788;2023-08-06T00:15:55;5;4.2;3
76045;PMS7003;64741;41.730;44.788;2023-08-06T00:20:59;5.4;5;3.6
76045;PMS7003;64741;41.730;44.788;2023-08-06T00:25:51;5.2;4.4;3.8
76045;PMS7003;64741;41.730;44.788;2023-08-06T00:30:59;4.6;4;2.6
76045;PMS7003;64741;41.730;44.788;2023-08-06T00:35:55;5.2;4.8;3.6
76045;PMS7003;64741;41.730;44.788;2023-08-06T00:40:59;5;5;3.8
76045;PMS7003;64741;41.730;44.788;2023-08-06T00:45:57;5.2;4.4;3
76045;PMS7003;64741;41.730;44.788;2023-08-06T00:50:59;4.4;3.8;2.8
76045;PMS7003;64741;41.730;44.788;2023-08-06T00:55:59;5;4.2;3.4
76045;PMS7003;64741;41.730;44.788;2023-08-06T01:00:51;5.6;4.8;3.8
76045;PMS7003;64741;41.730;44.788;2023-08-06T01:05:59;5.4;4.8;3.4
76045;PMS7003;64741;41.730;44.788;2023-08-06T01:10:57;6.6;4.8;3.6
76045;PMS7003;64741;41.730;44.788;2023-08-06T01:15:59;4.6;3.8;3
76045;PMS7003;64741;41.730;44.788;2023-08-06T01:20:51;5.4;4.8;4
76045;PMS7003;64741;41.730;44.788;2023-08-06T01:25:56;5.8;5.4;3.8
76045;PMS7003;64741;41.730;44.788;2023-08-06T01:30:59;4.6;3.8;3
76045;PMS7003;64741;41.730;44.788;2023-08-06T01:35:41;6.8;5.2;3.8
76045;PMS7003;64741;41.730;44.788;2023-08-06T01:40:59;4;3.6;2.8
76045;PMS7003;64741;41.730;44.788;2023-08-06T01:45:51;4.4;3.8;2.8
76045;PMS7003;64741;41.730;44.788;2023-08-06T01:50:59;4.8;3.6;3
76045;PMS7003;64741;41.730;44.788;2023-08-06T01:55:59;5.2;4;2.8
76045;PMS7003;64741;41.730;44.788;2023-08-06T02:00:55;4.6;4.2;3.2
76045;PMS7003;64741;41.730;44.788;2023-08-06T02:05:51;4.8;4;3
76045;PMS7003;64741;41.730;44.788;2023-08-06T02:10:57;4.2;3.2;2
76045;PMS7003;64741;41.730;44.788;2023-08-06T02:15:57;4;4;3
76045;PMS7003;64741;41.730;44.788;2023-08-06T02:20:58;4.4;4.2;3.2
76045;PMS7003;64741;41.730;44.788;2023-08-06T02:25:57;5.8;4.4;3.2
76045;PMS7003;64741;41.730;44.788;2023-08-06T02:30:59;4.4;4;3
76045;PMS7003;64741;41.730;44.788;2023-08-06T02:35:59;5;3.6;2.6
76045;PMS7003;64741;41.730;44.788;2023-08-06T02:40:51;5;4.6;3
76045;PMS7003;64741;41.730;44.788;2023-08-06T02:45:51;4.4;3.8;2.8
76045;PMS7003;64741;41.730;44.788;2023-08-06T02:50:51;3.4;3.2;2
76045;PMS7003;64741;41.730;44.788;2023-08-06T02:55:51;4.6;4.2;2.8
76045;PMS7003;64741;41.730;44.788;2023-08-06T03:00:59;4.6;4.2;3
76045;PMS7003;64741;41.730;44.788;2023-08-06T03:05:39;4.6;4;2.8
76045;PMS7003;64741;41.730;44.788;2023-08-06T03:10:59;4.6;3.6;2.8
76045;PMS7003;64741;41.730;44.788;2023-08-06T03:15:51;5.6;4.6;4
76045;PMS7003;64741;41.730;44.788;2023-08-06T03:20:55;6.8;5.2;4
76045;PMS7003;64741;41.730;44.788;2023-08-06T03:26:00;7.4;6.4;5.2
76045;PMS7003;64741;41.730;44.788;2023-08-06T03:30:58;7;6.2;4.6
76045;PMS7003;64741;41.730;44.788;2023-08-06T03:35:59;5.6;5.6;4.4
76045;PMS7003;64741;41.730;44.788;2023-08-06T03:40:55;6.2;5.6;4.4
76045;PMS7003;64741;41.730;44.788;2023-08-06T03:45:53;5;4.2;3.2
76045;PMS7003;64741;41.730;44.788;2023-08-06T03:50:53;6.8;5.6;4.6
76045;PMS7003;64741;41.730;44.788;2023-08-06T03:55:55;6.6;5.6;4.6
76045;PMS7003;64741;41.730;44.788;2023-08-06T04:00:59;5.6;5;3.6
76045;PMS7003;64741;41.730;44.788;2023-08-06T04:05:59;6;4.8;3.6
76045;PMS7003;64741;41.730;44.788;2023-08-06T04:10:59;5;4;3
76045;PMS7003;64741;41.730;44.788;2023-08-06T04:15:25;5.4;5;3.8
76045;PMS7003;64741;41.730;44.788;2023-08-06T04:20:57;5;4.2;3
76045;PMS7003;64741;41.730;44.788;2023-08-06T04:25:59;4.6;4;2.8
76045;PMS7003;64741;41.730;44.788;2023-08-06T04:30:53;3.8;3.4;2.4
76045;PMS7003;64741;41.730;44.788;2023-08-06T04:35:53;3.8;3.4;2.6
76045;PMS7003;64741;41.730;44.788;2023-08-06T04:40:59;5.2;4;3
76045;PMS7003;64741;41.730;44.788;2023-08-06T04:45:49;3.8;2.6;2
76045;PMS7003;64741;41.730;44.788;2023-08-06T04:50:55;4.4;3.6;2.6
76045;PMS7003;64741;41.730;44.788;2023-08-06T04:55:59;3.4;3.4;2.4
76045;PMS7003;64741;41.730;44.788;2023-08-06T05:00:59;5.2;4.8;4.2
76045;PMS7003;64741;41.730;44.788;2023-08-06T05:05:59;4.6;3.4;2.8
76045;PMS7003;64741;41.730;44.788;2023-08-06T05:10:51;5.4;5;3.6
76045;PMS7003;64741;41.730;44.788;2023-08-06T05:15:53;3.8;3.4;2.4
76045;PMS7003;64741;41.730;44.788;2023-08-06T05:20:57;5.6;4.4;3.2
76045;PMS7003;64741;41.730;44.788;2023-08-06T05:25:51;5.6;5;3.4
76045;PMS7003;64741;41.730;44.788;2023-08-06T05:30:57;5;4.4;3.6
76045;PMS7003;64741;41.730;44.788;2023-08-06T05:35:55;5.8;5.2;3.8
76045;PMS7003;64741;41.730;44.788;2023-08-06T05:40:57;5.2;4.6;3.6
76045;PMS7003;64741;41.730;44.788;2023-08-06T05:45:59;5;4.2;3.4
76045;PMS7003;64741;41.730;44.788;2023-08-06T05:50:59;5.5;4.8;3.5
76045;PMS7003;64741;41.730;44.788;2023-08-06T05:55:59;5.6;5.4;3.8
76045;PMS7003;64741;41.730;44.788;2023-08-06T06:00:59;7.6;6.6;5
76045;PMS7003;64741;41.730;44.788;2023-08-06T06:05:59;8;6.4;4.8
76045;PMS7003;64741;41.730;44.788;2023-08-06T06:10:51;6;4.8;3.8
76045;PMS7003;64741;41.730;44.788;2023-08-06T06:15:59;6.4;5.2;3.4
76045;PMS7003;64741;41.730;44.788;2023-08-06T06:20:59;5.8;4.8;3.6
76045;PMS7003;64741;41.730;44.788;2023-08-06T06:25:55;7.4;5.6;4.4
76045;PMS7003;64741;41.730;44.788;2023-08-06T06:30:51;5.4;4.6;3.8
76045;PMS7003;64741;41.730;44.788;2023-08-06T06:35:59;5;4.6;3.8
76045;PMS7003;64741;41.730;44.788;2023-08-06T06:40:59;5.6;4.8;3.8
76045;PMS7003;64741;41.730;44.788;2023-08-06T06:45:52;5.4;4.8;4
76045;PMS7003;64741;41.730;44.788;2023-08-06T06:50:33;5.2;3.8;2.6
76045;PMS7003;64741;41.730;44.788;2023-08-06T06:56:01;5.4;4.4;3.4
76045;PMS7003;64741;41.730;44.788;2023-08-06T07:00:59;5;4.6;3.4
76045;PMS7003;64741;41.730;44.788;2023-08-06T07:05:51;5.2;4.4;3.6
76045;PMS7003;64741;41.730;44.788;2023-08-06T07:10:37;6.6;5.6;4.2
76045;PMS7003;64741;41.730;44.788;2023-08-06T07:15:51;5.2;4.2;3
76045;PMS7003;64741;41.730;44.788;2023-08-06T07:20:51;4.2;4.2;3.2
76045;PMS7003;64741;41.730;44.788;2023-08-06T07:25:59;4.4;4.2;3.2
76045;PMS7003;64741;41.730;44.788;2023-08-06T07:30:55;6.4;5.2;4.2
76045;PMS7003;64741;41.730;44.788;2023-08-06T07:35:59;4.6;4;2.4
76045;PMS7003;64741;41.730;44.788;2023-08-06T07:40:51;4.2;3.8;2.4
76045;PMS7003;64741;41.730;44.788;2023-08-06T07:45:57;5.6;5;3.8
76045;PMS7003;64741;41.730;44.788;2023-08-06T07:50:57;9.2;8.2;6.6
76045;PMS7003;64741;41.730;44.788;2023-08-06T07:55:51;13;10.4;7.4
76045;PMS7003;64741;41.730;44.788;2023-08-06T08:00:59;13;9.8;7.6
76045;PMS7003;64741;41.730;44.788;2023-08-06T08:05:54;17.4;14.4;10.8
76045;PMS7003;64741;41.730;44.788;2023-08-06T08:10:55;16;13.6;10.8
76045;PMS7003;64741;41.730;44.788;2023-08-06T08:15:56;17.6;14.8;11
76045;PMS7003;64741;41.730;44.788;2023-08-06T08:20:53;16;13.2;10.2
76045;PMS7003;64741;41.730;44.788;2023-08-06T08:25:59;15;11.6;8.8
76045;PMS7003;64741;41.730;44.788;2023-08-06T08:30:59;10;9.4;6.8
76045;PMS7003;64741;41.730;44.788;2023-08-06T08:35:57;10;8.4;5.8
76045;PMS7003;64741;41.730;44.788;2023-08-06T08:40:53;7.4;6.6;4.8
76045;PMS7003;64741;41.730;44.788;2023-08-06T08:45:57;7.8;7.8;5.2
76045;PMS7003;64741;41.730;44.788;2023-08-06T08:50:59;5.6;5;3.6
76045;PMS7003;64741;41.730;44.788;2023-08-06T08:55:55;7.4;6.6;4.6
76045;PMS7003;64741;41.730;44.788;2023-08-06T09:00:51;7;6;4.6
76045;PMS7003;64741;41.730;44.788;2023-08-06T09:05:59;7;4.8;3.4
76045;PMS7003;64741;41.730;44.788;2023-08-06T09:10:59;6.6;5.4;3.8
76045;PMS7003;64741;41.730;44.788;2023-08-06T09:15:55;5.2;4;3.2
76045;PMS7003;64741;41.730;44.788;2023-08-06T09:20:59;5.4;4.6;3.8
76045;PMS7003;64741;41.730;44.788;2023-08-06T09:25:59;4.2;3.2;2.6
76045;PMS7003;64741;41.730;44.788;2023-08-06T09:30:59;6;4.6;3.4
76045;PMS7003;64741;41.730;44.788;2023-08-06T09:35:51;5.6;4.4;3.2
76045;PMS7003;64741;41.730;44.788;2023-08-06T09:40:59;7;5.4;4
76045;PMS7003;64741;41.730;44.788;2023-08-06T09:45:59;6.4;4.8;3.2
76045;PMS7003;64741;41.730;44.788;2023-08-06T09:50:51;5.4;4.4;3.2
76045;PMS7003;64741;41.730;44.788;2023-08-06T09:55:59;4.4;3.4;2.4
76045;PMS7003;64741;41.730;44.788;2023-08-06T10:00:53;4;2.8;2.6
76045;PMS7003;64741;41.730;44.788;2023-08-06T10:05:57;4.2;3.6;2.8
76045;PMS7003;64741;41.730;44.788;2023-08-06T10:10:51;5.2;4;3
76045;PMS7003;64741;41.730;44.788;2023-08-06T10:15:53;5.2;4.2;3.6
76045;PMS7003;64741;41.730;44.788;2023-08-06T10:20:59;5.6;4.6;3.4
76045;PMS7003;64741;41.730;44.788;2023-08-06T10:25:59;5;4;2.8
76045;PMS7003;64741;41.730;44.788;2023-08-06T10:30:57;5.6;5.4;3.8
76045;PMS7003;64741;41.730;44.788;2023-08-06T10:35:51;5.8;4.4;3.2
76045;PMS7003;64741;41.730;44.788;2023-08-06T10:41:01;6;4.8;3.4
76045;PMS7003;64741;41.730;44.788;2023-08-06T10:45:49;6.2;5.8;4.2
76045;PMS7003;64741;41.730;44.788;2023-08-06T10:50:55;5.4;4.4;2.6
76045;PMS7003;64741;41.730;44.788;2023-08-06T10:55:51;5.2;4.4;3.4
76045;PMS7003;64741;41.730;44.788;2023-08-06T11:00:59;4.8;4.3;3.3
76045;PMS7003;64741;41.730;44.788;2023-08-06T11:05:57;5.4;4;3.2
76045;PMS7003;64741;41.730;44.788;2023-08-06T11:10:51;5.6;5;4.2
76045;PMS7003;64741;41.730;44.788;2023-08-06T11:15:57;7;6;4.6
76045;PMS7003;64741;41.730;44.788;2023-08-06T11:20:58;5.6;4.6;3.4
76045;PMS7003;64741;41.730;44.788;2023-08-06T11:25:19;5.4;4.6;3.6
76045;PMS7003;64741;41.730;44.788;2023-08-06T11:30:51;4.6;4.2;3
76045;PMS7003;64741;41.730;44.788;2023-08-06T11:35:51;4.4;3.6;2.4
76045;PMS7003;64741;41.730;44.788;2023-08-06T11:40:51;3.6;3.6;3.2
76045;PMS7003;64741;41.730;44.788;2023-08-06T11:45:54;4.6;4.2;3.6
76045;PMS7003;64741;41.730;44.788;2023-08-06T11:50:57;4.8;4;3
76045;PMS7003;64741;41.730;44.788;2023-08-06T11:55:51;6;5.4;4
76045;PMS7003;64741;41.730;44.788;2023-08-06T12:00:57;5;4.4;3.4
76045;PMS7003;64741;41.730;44.788;2023-08-06T12:05:53;5;4.6;3.2
76045;PMS7003;64741;41.730;44.788;2023-08-06T12:10:51;4.6;3.8;2.6
76045;PMS7003;64741;41.730;44.788;2023-08-06T12:15:57;3.8;3.4;3
76045;PMS7003;64741;41.730;44.788;2023-08-06T12:20:53;4.8;4.4;2.8
76045;PMS7003;64741;41.730;44.788;2023-08-06T12:25:57;4.4;3.6;3
76045;PMS7003;64741;41.730;44.788;2023-08-06T12:30:53;2.8;2.4;2
76045;PMS7003;64741;41.730;44.788;2023-08-06T12:35:53;3.6;2.6;2
76045;PMS7003;64741;41.730;44.788;2023-08-06T12:40:51;4;3.2;2.2
76045;PMS7003;64741;41.730;44.788;2023-08-06T12:45:51;4.8;4;3.4
76045;PMS7003;64741;41.730;44.788;2023-08-06T12:50:57;3.2;2.8;2.2
76045;PMS7003;64741;41.730;44.788;2023-08-06T12:55:59;3.8;3.6;2.2
76045;PMS7003;64741;41.730;44.788;2023-08-06T13:00:59;3.6;3.2;2.4
76045;PMS7003;64741;41.730;44.788;2023-08-06T13:05:53;3.2;3;1.8
76045;PMS7003;64741;41.730;44.788;2023-08-06T13:10:43;2.8;2.8;2.2
76045;PMS7003;64741;41.730;44.788;2023-08-06T13:15:59;2.6;2.4;1.8
76045;PMS7003;64741;41.730;44.788;2023-08-06T13:20:53;3.4;3;2.2
76045;PMS7003;64741;41.730;44.788;2023-08-06T13:25:53;4;3.4;2.2
76045;PMS7003;64741;41.730;44.788;2023-08-06T13:30:39;4.4;3.4;2.4
76045;PMS7003;64741;41.730;44.788;2023-08-06T13:35:59;2.8;2.8;2.4
76045;PMS7003;64741;41.730;44.788;2023-08-06T13:40:53;4.2;3.4;2.2
76045;PMS7003;64741;41.730;44.788;2023-08-06T13:45:59;4.6;4.4;3.6
76045;PMS7003;64741;41.730;44.788;2023-08-06T13:50:53;6;5.4;4
76045;PMS7003;64741;41.730;44.788;2023-08-06T13:56:01;7.4;6.4;5.4
76045;PMS7003;64741;41.730;44.788;2023-08-06T14:01:01;8;7.4;5.8
76045;PMS7003;64741;41.730;44.788;2023-08-06T14:06:01;6.6;5.6;4.6
76045;PMS7003;64741;41.730;44.788;2023-08-06T14:11:01;9;6.4;4.8
76045;PMS7003;64741;41.730;44.788;2023-08-06T14:15:53;7.2;6.4;4.4
76045;PMS7003;64741;41.730;44.788;2023-08-06T14:21:01;5;4.8;4
76045;PMS7003;64741;41.730;44.788;2023-08-06T14:25:53;4.4;3.4;2.8
76045;PMS7003;64741;41.730;44.788;2023-08-06T14:31:01;3;2.6;1.8
76045;PMS7003;64741;41.730;44.788;2023-08-06T14:35:53;3.4;3.2;2.4
76045;PMS7003;64741;41.730;44.788;2023-08-06T14:40:55;2.8;2.8;1.8
76045;PMS7003;64741;41.730;44.788;2023-08-06T14:45:59;3.8;3;1.8
76045;PMS7003;64741;41.730;44.788;2023-08-06T14:51:01;2.8;2.6;2
76045;PMS7003;64741;41.730;44.788;2023-08-06T14:55:43;3.6;3;2.2
76045;PMS7003;64741;41.730;44.788;2023-08-06T15:00:53;3.4;2.8;2
76045;PMS7003;64741;41.730;44.788;2023-08-06T15:06:01;2.8;2.4;1.8
76045;PMS7003;64741;41.730;44.788;2023-08-06T15:11:01;3.6;2.8;2.4
76045;PMS7003;64741;41.730;44.788;2023-08-06T15:15:55;2.6;2.4;1.4
76045;PMS7003;64741;41.730;44.788;2023-08-06T15:20:53;4.2;2.6;2
76045;PMS7003;64741;41.730;44.788;2023-08-06T15:26:01;4.6;3.6;2.8
76045;PMS7003;64741;41.730;44.788;2023-08-06T15:31:01;3;2.6;1.4
76045;PMS7003;64741;41.730;44.788;2023-08-06T15:35:51;5;4.2;3
76045;PMS7003;64741;41.730;44.788;2023-08-06T15:40:31;4;2.6;2
76045;PMS7003;64741;41.730;44.788;2023-08-06T15:46:01;3;2.2;1.6
76045;PMS7003;64741;41.730;44.788;2023-08-06T15:51:01;3.2;2.2;1.2
76045;PMS7003;64741;41.730;44.788;2023-08-06T15:55:37;3;2.6;2
76045;PMS7003;64741;41.730;44.788;2023-08-06T16:00:53;3.4;2.2;1.6
76045;PMS7003;64741;41.730;44.788;2023-08-06T16:05:53;3;2.2;1.6
76045;PMS7003;64741;41.730;44.788;2023-08-06T16:10:53;3.5;2.5;2.3
76045;PMS7003;64741;41.730;44.788;2023-08-06T16:16:01;3.6;2.8;2.2
76045;PMS7003;64741;41.730;44.788;2023-08-06T16:20:55;3.2;2.2;1.8
76045;PMS7003;64741;41.730;44.788;2023-08-06T16:26:01;3.8;2.8;1.8
76045;PMS7003;64741;41.730;44.788;2023-08-06T16:30:53;3.8;3.4;2.8
76045;PMS7003;64741;41.730;44.788;2023-08-06T16:35:55;4.4;3.8;2.8
76045;PMS7003;64741;41.730;44.788;2023-08-06T16:41:01;3.8;3;2.4
76045;PMS7003;64741;41.730;44.788;2023-08-06T16:45:53;3.8;3.4;2.6
76045;PMS7003;64741;41.730;44.788;2023-08-06T16:51:01;4.2;3.6;2.2
76045;PMS7003;64741;41.730;44.788;2023-08-06T16:55:55;5.4;4.8;4.2
76045;PMS7003;64741;41.730;44.788;2023-08-06T17:00:55;7;6;4.2
76045;PMS7003;64741;41.730;44.788;2023-08-06T17:05:55;7;5.8;4.6
76045;PMS7003;64741;41.730;44.788;2023-08-06T17:10:49;6.2;5.6;4.2
76045;PMS7003;64741;41.730;44.788;2023-08-06T17:15:47;5.6;5;3.8
76045;PMS7003;64741;41.730;44.788;2023-08-06T17:20:35;7.2;5.6;4.4
76045;PMS7003;64741;41.730;44.788;2023-08-06T17:25:45;9.6;8;4.8
76045;PMS7003;64741;41.730;44.788;2023-08-06T17:30:53;10.4;8.6;6.2
76045;PMS7003;64741;41.730;44.788;2023-08-06T17:36:01;10;8.8;7.4
76045;PMS7003;64741;41.730;44.788;2023-08-06T17:40:45;10;8.4;6.8
76045;PMS7003;64741;41.730;44.788;2023-08-06T17:46:01;17.4;15.8;12.6
76045;PMS7003;64741;41.730;44.788;2023-08-06T17:50:53;21.6;19.6;15.8
76045;PMS7003;64741;41.730;44.788;2023-08-06T17:55:55;21.2;19;14
76045;PMS7003;64741;41.730;44.788;2023-08-06T18:00:51;16;14.6;11.8
76045;PMS7003;64741;41.730;44.788;2023-08-06T18:05:54;10.4;9.2;7
76045;PMS7003;64741;41.730;44.788;2023-08-06T18:11:01;11;8.6;7
76045;PMS7003;64741;41.730;44.788;2023-08-06T18:15:55;9.6;7;5.6
76045;PMS7003;64741;41.730;44.788;2023-08-06T18:21:01;10;8.2;7.2
76045;PMS7003;64741;41.730;44.788;2023-08-06T18:26:01;6;5.8;4.2
76045;PMS7003;64741;41.730;44.788;2023-08-06T18:31:01;8.2;6;4.8
76045;PMS7003;64741;41.730;44.788;2023-08-06T18:36:01;6;5.4;4.4
76045;PMS7003;64741;41.730;44.788;2023-08-06T18:40:56;7;6.2;4.6
76045;PMS7003;64741;41.730;44.788;2023-08-06T18:46:01;6;5;4.4
76045;PMS7003;64741;41.730;44.788;2023-08-06T18:50:55;6.6;5.6;4.4
76045;PMS7003;64741;41.730;44.788;2023-08-06T18:56:01;6.4;5;4.2
76045;PMS7003;64741;41.730;44.788;2023-08-06T19:00:55;5.8;5.4;4
76045;PMS7003;64741;41.730;44.788;2023-08-06T19:05:57;5.6;5.6;4.2
76045;PMS7003;64741;41.730;44.788;2023-08-06T19:11:01;5.6;4.6;3.8
76045;PMS7003;64741;41.730;44.788;2023-08-06T19:16:02;5;4.4;3.8
76045;PMS7003;64741;41.730;44.788;2023-08-06T19:21:01;6.6;5.2;4
76045;PMS7003;64741;41.730;44.788;2023-08-06T19:25:51;8;6.8;4.8
76045;PMS7003;64741;41.730;44.788;2023-08-06T19:31:01;7;6;5
76045;PMS7003;64741;41.730;44.788;2023-08-06T19:36:01;6;5.4;4
76045;PMS7003;64741;41.730;44.788;2023-08-06T19:41:02;5.8;5.2;3.8
76045;PMS7003;64741;41.730;44.788;2023-08-06T19:45:53;5.6;5.2;4
76045;PMS7003;64741;41.730;44.788;2023-08-06T19:51:01;5;4.8;3.8
76045;PMS7003;64741;41.730;44.788;2023-08-06T19:56:02;5.4;5;3.6
76045;PMS7003;64741;41.730;44.788;2023-08-06T20:00:53;5.2;5;3.8
76045;PMS7003;64741;41.730;44.788;2023-08-06T20:06:01;9.2;8.4;5.8
76045;PMS7003;64741;41.730;44.788;2023-08-06T20:11:01;7.6;6;4.8
76045;PMS7003;64741;41.730;44.788;2023-08-06T20:15:15;6.4;5.8;4.4
76045;PMS7003;64741;41.730;44.788;2023-08-06T20:20:51;6.4;5.2;4.4
76045;PMS7003;64741;41.730;44.788;2023-08-06T20:25:53;6.4;5.4;4.2
76045;PMS7003;64741;41.730;44.788;2023-08-06T20:30:53;7.2;5.2;4.2
76045;PMS7003;64741;41.730;44.788;2023-08-06T20:35:53;6.2;5.2;4.2
76045;PMS7003;64741;41.730;44.788;2023-08-06T20:40:59;6.8;6;4.4
76045;PMS7003;64741;41.730;44.788;2023-08-06T20:45:53;6;6;5.4
76045;PMS7003;64741;41.730;44.788;2023-08-06T20:51:01;6;5.6;4.4
76045;PMS7003;64741;41.730;44.788;2023-08-06T20:55:57;7.6;5.4;4.2
76045;PMS7003;64741;41.730;44.788;2023-08-06T21:00:55;5.2;4.8;3.8
76045;PMS7003;64741;41.730;44.788;2023-08-06T21:06:02;7.4;5.6;4.2
76045;PMS7003;64741;41.730;44.788;2023-08-06T21:10:53;6.2;5.2;4.2
76045;PMS7003;64741;41.730;44.788;2023-08-06T21:16:02;5.8;5;3.8
76045;PMS7003;64741;41.730;44.788;2023-08-06T21:20:55;7;5.5;4.3
76045;PMS7003;64741;41.730;44.788;2023-08-06T21:26:02;5.6;4.4;3.4
76045;PMS7003;64741;41.730;44.788;2023-08-06T21:31:02;7.4;5.2;3.8
76045;PMS7003;64741;41.730;44.788;2023-08-06T21:35:56;5.8;5.2;3.8
76045;PMS7003;64741;41.730;44.788;2023-08-06T21:40:53;4.8;4.2;3.6
76045;PMS7003;64741;41.730;44.788;2023-08-06T21:46:01;5.8;5.2;3.6
76045;PMS7003;64741;41.730;44.788;2023-08-06T21:51:01;6.4;5.4;4.2
76045;PMS7003;64741;41.730;44.788;2023-08-06T21:55:56;6.6;5.4;3.8
76045;PMS7003;64741;41.730;44.788;2023-08-06T22:01:01;5;4;2.8
76045;PMS7003;64741;41.730;44.788;2023-08-06T22:06:01;6;5;4
76045;PMS7003;64741;41.730;44.788;2023-08-06T22:10:57;5.4;5;4
76045;PMS7003;64741;41.730;44.788;2023-08-06T22:15:53;6.8;5.4;4
76045;PMS7003;64741;41.730;44.788;2023-08-06T22:20:54;5.8;5.2;3.8
76045;PMS7003;64741;41.730;44.788;2023-08-06T22:25:59;5.4;4.6;4
76045;PMS7003;64741;41.730;44.788;2023-08-06T22:30:53;5.6;5.6;3.8
76045;PMS7003;64741;41.730;44.788;2023-08-06T22:35:59;6.4;5.4;3.8
76045;PMS7003;64741;41.730;44.788;2023-08-06T22:40:53;4.2;4;3.4
76045;PMS7003;64741;41.730;44.788;2023-08-06T22:45:57;5.2;4.6;4
76045;PMS7003;64741;41.730;44.788;2023-08-06T22:50:59;5.2;5;4
76045;PMS7003;64741;41.730;44.788;2023-08-06T22:55:43;5.8;5;4
76045;PMS7003;64741;41.730;44.788;2023-08-06T23:00:59;6.8;5.4;4.4
76045;PMS7003;64741;41.730;44.788;2023-08-06T23:05:53;5.4;4.8;3.4
76045;PMS7003;64741;41.730;44.788;2023-08-06T23:10:59;6.8;6;4.8
76045;PMS7003;64741;41.730;44.788;2023-08-06T23:15:53;5.8;5.2;3.8
76045;PMS7003;64741;41.730;44.788;2023-08-06T23:20:59;4.8;4.4;3.2
76045;PMS7003;64741;41.730;44.788;2023-08-06T23:25:53;6.6;5.6;4.4
76045;PMS7003;64741;41.730;44.788;2023-08-06T23:30:53;5;4.6;3.4
76045;PMS7003;64741;41.730;44.788;2023-08-06T23:35:59;4.2;4;2.8
76045;PMS7003;64741;41.730;44.788;2023-08-06T23:40:59;6.4;5;3.6
76045;PMS7003;64741;41.730;44.788;2023-08-06T23:45:59;5;4.2;3.4
76045;PMS7003;64741;41.730;44.788;2023-08-06T23:50:53;5.2;4.6;3.4
76045;PMS7003;64741;41.730;44.788;2023-08-06T23:55:59;3.2;3;2.6
